sensor_id;sensor_type;location;lat;lon;timestamp;P1;durP1;ratioP1;P2;durP2;ratioP2
15498;SDS011;7851;52.260;6.030;2023-03-01T00:03:14;9.3;;;7.2;;
15498;SDS011;7851;52.260;6.030;2023-03-01T00:03:14;7.6;;;6.8;;
15498;SDS011;7851;52.260;6.030;2023-03-01T00:03:14;8.2;;;6.9;;
15498;SDS011;7851;52.260;6.030;2023-03-01T00:03:52;7.1;;;6.4;;
15498;SDS011;7851;52.260;6.030;2023-03-01T00:04:52;8.7;;;6.9;;
15498;SDS011;7851;52.260;6.030;2023-03-01T00:05:52;9.3;;;6.5;;
15498;SDS011;7851;52.260;6.030;2023-03-01T00:06:52;11.3;;;6.7;;
15498;SDS011;7851;52.260;6.030;2023-03-01T00:07:53;8.3;;;6.7;;
15498;SDS011;7851;52.260;6.030;2023-03-01T00:08:52;6.8;;;6.1;;
15498;SDS011;7851;52.260;6.030;2023-03-01T00:09:52;8.2;;;7;;
15498;SDS011;7851;52.260;6.030;2023-03-01T00:10:59;8.6;;;6.4;;
15498;SDS011;7851;52.260;6.030;2023-03-01T00:11:52;6.7;;;6.1;;
15498;SDS011;7851;52.260;6.030;2023-03-01T00:12:52;8.1;;;6.1;;
15498;SDS011;7851;52.260;6.030;2023-03-01T00:13:53;7;;;6.3;;
15498;SDS011;7851;52.260;6.030;2023-03-01T00:14:52;9.4;;;7.1;;
15498;SDS011;7851;52.260;6.030;2023-03-01T00:15:52;8.1;;;6.4;;
15498;SDS011;7851;52.260;6.030;2023-03-01T00:16:52;9.1;;;6.8;;
15498;SDS011;7851;52.260;6.030;2023-03-01T00:17:52;10.7;;;7.2;;
15498;SDS011;7851;52.260;6.030;2023-03-01T00:18:53;7.5;;;6.4;;
15498;SDS011;7851;52.260;6.030;2023-03-01T00:19:52;9.8;;;6.6;;
15498;SDS011;7851;52.260;6.030;2023-03-01T00:20:53;8.2;;;6.6;;
15498;SDS011;7851;52.260;6.030;2023-03-01T00:21:52;10.6;;;6.9;;
15498;SDS011;7851;52.260;6.030;2023-03-01T00:22:52;10.8;;;6.7;;
15498;SDS011;7851;52.260;6.030;2023-03-01T00:23:52;17.4;;;7.1;;
15498;SDS011;7851;52.260;6.030;2023-03-01T00:24:52;11.7;;;6.7;;
15498;SDS011;7851;52.260;6.030;2023-03-01T00:25:52;10.4;;;7.3;;
15498;SDS011;7851;52.260;6.030;2023-03-01T00:26:52;10.3;;;6.4;;
15498;SDS011;7851;52.260;6.030;2023-03-01T00:27:52;8.5;;;6;;
15498;SDS011;7851;52.260;6.030;2023-03-01T00:28:52;6.5;;;5.9;;
15498;SDS011;7851;52.260;6.030;2023-03-01T00:29:54;10.3;;;6.1;;
15498;SDS011;7851;52.260;6.030;2023-03-01T00:30:54;6.6;;;6;;
15498;SDS011;7851;52.260;6.030;2023-03-01T00:31:54;7.7;;;6;;
15498;SDS011;7851;52.260;6.030;2023-03-01T00:32:54;6.3;;;5.6;;
15498;SDS011;7851;52.260;6.030;2023-03-01T00:33:55;6.2;;;5.6;;
15498;SDS011;7851;52.260;6.030;2023-03-01T00:34:54;8;;;6;;
15498;SDS011;7851;52.260;6.030;2023-03-01T00:35:54;7.8;;;6.3;;
15498;SDS011;7851;52.260;6.030;2023-03-01T00:36:54;7.7;;;5.9;;
15498;SDS011;7851;52.260;6.030;2023-03-01T00:37:54;10.8;;;6.4;;
15498;SDS011;7851;52.260;6.030;2023-03-01T00:38:54;7.1;;;5.3;;
15498;SDS011;7851;52.260;6.030;2023-03-01T00:39:54;9;;;5.8;;
15498;SDS011;7851;52.260;6.030;2023-03-01T00:40:56;9;;;6.5;;
15498;SDS011;7851;52.260;6.030;2023-03-01T00:41:55;7.4;;;5.4;;
15498;SDS011;7851;52.260;6.030;2023-03-01T00:42:55;7;;;5.3;;
15498;SDS011;7851;52.260;6.030;2023-03-01T00:43:55;6.7;;;5.7;;
15498;SDS011;7851;52.260;6.030;2023-03-01T00:44:55;9.7;;;5.5;;
15498;SDS011;7851;52.260;6.030;2023-03-01T00:45:55;5.6;;;4.7;;
15498;SDS011;7851;52.260;6.030;2023-03-01T00:46:55;5.7;;;5.1;;
15498;SDS011;7851;52.260;6.030;2023-03-01T00:47:55;6;;;5.2;;
15498;SDS011;7851;52.260;6.030;2023-03-01T00:48:55;6.4;;;4.9;;
15498;SDS011;7851;52.260;6.030;2023-03-01T00:49:55;8.6;;;4.8;;
15498;SDS011;7851;52.260;6.030;2023-03-01T00:50:55;7.9;;;5.7;;
15498;SDS011;7851;52.260;6.030;2023-03-01T00:51:55;5;;;4.6;;
15498;SDS011;7851;52.260;6.030;2023-03-01T00:52:55;5.3;;;4.8;;
15498;SDS011;7851;52.260;6.030;2023-03-01T00:53:58;5.2;;;4.8;;
15498;SDS011;7851;52.260;6.030;2023-03-01T00:54:55;5.3;;;4.8;;
15498;SDS011;7851;52.260;6.030;2023-03-01T00:55:56;5;;;4.5;;
15498;SDS011;7851;52.260;6.030;2023-03-01T00:56:55;7.1;;;5.3;;
15498;SDS011;7851;52.260;6.030;2023-03-01T00:57:55;5.6;;;4.7;;
15498;SDS011;7851;52.260;6.030;2023-03-01T00:58:55;5.7;;;4.8;;
15498;SDS011;7851;52.260;6.030;2023-03-01T00:59:55;5.5;;;4.6;;
15498;SDS011;7851;52.260;6.030;2023-03-01T01:00:55;5.3;;;4.8;;
15498;SDS011;7851;52.260;6.030;2023-03-01T01:01:55;5.2;;;4.8;;
15498;SDS011;7851;52.260;6.030;2023-03-01T01:02:55;4.4;;;4;;
15498;SDS011;7851;52.260;6.030;2023-03-01T01:03:56;5.6;;;4.6;;
15498;SDS011;7851;52.260;6.030;2023-03-01T01:04:55;5.7;;;5.1;;
15498;SDS011;7851;52.260;6.030;2023-03-01T01:05:55;11.9;;;4.9;;
15498;SDS011;7851;52.260;6.030;2023-03-01T01:06:55;7;;;4.9;;
15498;SDS011;7851;52.260;6.030;2023-03-01T01:07:55;4.3;;;3.9;;
15498;SDS011;7851;52.260;6.030;2023-03-01T01:08:55;4.7;;;4.2;;
15498;SDS011;7851;52.260;6.030;2023-03-01T01:09:55;5.2;;;4.7;;
15498;SDS011;7851;52.260;6.030;2023-03-01T01:10:55;5.4;;;4.1;;
15498;SDS011;7851;52.260;6.030;2023-03-01T01:11:55;6.5;;;4.2;;
15498;SDS011;7851;52.260;6.030;2023-03-01T01:12:55;5.2;;;4.7;;
15498;SDS011;7851;52.260;6.030;2023-03-01T01:13:55;5.9;;;4.5;;
15498;SDS011;7851;52.260;6.030;2023-03-01T01:14:55;5.5;;;4.4;;
15498;SDS011;7851;52.260;6.030;2023-03-01T01:15:59;5;;;4.2;;
15498;SDS011;7851;52.260;6.030;2023-03-01T01:16:55;5.3;;;4.2;;
15498;SDS011;7851;52.260;6.030;2023-03-01T01:17:55;4.8;;;4.4;;
15498;SDS011;7851;52.260;6.030;2023-03-01T01:18:55;7.5;;;4.7;;
15498;SDS011;7851;52.260;6.030;2023-03-01T01:20:27;5.3;;;4.3;;
15498;SDS011;7851;52.260;6.030;2023-03-01T01:20:55;5.2;;;4;;
15498;SDS011;7851;52.260;6.030;2023-03-01T01:21:55;6.3;;;4.4;;
15498;SDS011;7851;52.260;6.030;2023-03-01T01:22:55;5;;;4.5;;
15498;SDS011;7851;52.260;6.030;2023-03-01T01:23:55;6.4;;;5.2;;
15498;SDS011;7851;52.260;6.030;2023-03-01T01:24:55;4.7;;;3.9;;
15498;SDS011;7851;52.260;6.030;2023-03-01T01:25:55;4.5;;;4.1;;
15498;SDS011;7851;52.260;6.030;2023-03-01T01:26:55;4.2;;;3.9;;
15498;SDS011;7851;52.260;6.030;2023-03-01T01:27:55;4.7;;;4.2;;
15498;SDS011;7851;52.260;6.030;2023-03-01T01:28:55;5.2;;;4.6;;
15498;SDS011;7851;52.260;6.030;2023-03-01T01:29:55;9.7;;;4.3;;
15498;SDS011;7851;52.260;6.030;2023-03-01T01:30:55;4.4;;;4;;
15498;SDS011;7851;52.260;6.030;2023-03-01T01:31:55;4.5;;;4.1;;
15498;SDS011;7851;52.260;6.030;2023-03-01T01:32:55;4.5;;;4.1;;
15498;SDS011;7851;52.260;6.030;2023-03-01T01:33:55;5.2;;;4.7;;
15498;SDS011;7851;52.260;6.030;2023-03-01T01:34:55;4.4;;;4;;
15498;SDS011;7851;52.260;6.030;2023-03-01T01:35:55;4.7;;;4;;
15498;SDS011;7851;52.260;6.030;2023-03-01T01:36:55;4.2;;;3.8;;
15498;SDS011;7851;52.260;6.030;2023-03-01T01:37:55;4.9;;;4.3;;
15498;SDS011;7851;52.260;6.030;2023-03-01T01:38:55;4.4;;;4;;
15498;SDS011;7851;52.260;6.030;2023-03-01T01:39:55;5.8;;;4.4;;
15498;SDS011;7851;52.260;6.030;2023-03-01T01:40:55;4.6;;;4.2;;
15498;SDS011;7851;52.260;6.030;2023-03-01T01:41:55;4.7;;;3.9;;
15498;SDS011;7851;52.260;6.030;2023-03-01T01:42:55;5.3;;;4.5;;
15498;SDS011;7851;52.260;6.030;2023-03-01T01:44:12;4.4;;;3.9;;
15498;SDS011;7851;52.260;6.030;2023-03-01T01:45:55;4.4;;;4;;
15498;SDS011;7851;52.260;6.030;2023-03-01T01:46:55;4.2;;;3.9;;
15498;SDS011;7851;52.260;6.030;2023-03-01T01:47:56;4.2;;;3.5;;
15498;SDS011;7851;52.260;6.030;2023-03-01T01:48:56;4.7;;;4.3;;
15498;SDS011;7851;52.260;6.030;2023-03-01T01:49:55;5;;;4.1;;
15498;SDS011;7851;52.260;6.030;2023-03-01T01:50:56;4.9;;;3.9;;
15498;SDS011;7851;52.260;6.030;2023-03-01T01:51:57;6.1;;;4.3;;
15498;SDS011;7851;52.260;6.030;2023-03-01T01:52:55;7.7;;;4.2;;
15498;SDS011;7851;52.260;6.030;2023-03-01T01:53:56;5;;;4.2;;
15498;SDS011;7851;52.260;6.030;2023-03-01T01:54:56;5.2;;;4.3;;
15498;SDS011;7851;52.260;6.030;2023-03-01T01:55:56;4.6;;;4.2;;
15498;SDS011;7851;52.260;6.030;2023-03-01T01:56:56;5.1;;;4.3;;
15498;SDS011;7851;52.260;6.030;2023-03-01T01:57:56;4.6;;;4.2;;
15498;SDS011;7851;52.260;6.030;2023-03-01T01:58:55;6.5;;;4.4;;
15498;SDS011;7851;52.260;6.030;2023-03-01T01:59:57;4.3;;;3.9;;
15498;SDS011;7851;52.260;6.030;2023-03-01T02:00:55;4.4;;;4;;
15498;SDS011;7851;52.260;6.030;2023-03-01T02:01:55;4.9;;;4.4;;
15498;SDS011;7851;52.260;6.030;2023-03-01T02:02:56;5;;;4.1;;
15498;SDS011;7851;52.260;6.030;2023-03-01T02:03:55;5.4;;;4.4;;
15498;SDS011;7851;52.260;6.030;2023-03-01T02:04:58;7;;;4.1;;
15498;SDS011;7851;52.260;6.030;2023-03-01T02:05:57;5.1;;;4.6;;
15498;SDS011;7851;52.260;6.030;2023-03-01T02:06:57;4.2;;;3.8;;
15498;SDS011;7851;52.260;6.030;2023-03-01T02:07:55;4.2;;;3.8;;
15498;SDS011;7851;52.260;6.030;2023-03-01T02:08:56;8.7;;;4.4;;
15498;SDS011;7851;52.260;6.030;2023-03-01T02:09:55;6.2;;;4.8;;
15498;SDS011;7851;52.260;6.030;2023-03-01T02:10:55;5.3;;;4.3;;
15498;SDS011;7851;52.260;6.030;2023-03-01T02:11:55;4.3;;;3.9;;
15498;SDS011;7851;52.260;6.030;2023-03-01T02:12:55;4.8;;;4.2;;
15498;SDS011;7851;52.260;6.030;2023-03-01T02:13:55;4.6;;;4.1;;
15498;SDS011;7851;52.260;6.030;2023-03-01T02:14:55;4.9;;;4.4;;
15498;SDS011;7851;52.260;6.030;2023-03-01T02:15:55;4.5;;;4.1;;
15498;SDS011;7851;52.260;6.030;2023-03-01T02:16:55;5.6;;;4.4;;
15498;SDS011;7851;52.260;6.030;2023-03-01T02:17:55;4.7;;;4.1;;
15498;SDS011;7851;52.260;6.030;2023-03-01T02:19:29;5.1;;;3.9;;
15498;SDS011;7851;52.260;6.030;2023-03-01T02:19:59;4.7;;;4.2;;
15498;SDS011;7851;52.260;6.030;2023-03-01T02:21:29;4.4;;;3.5;;
15498;SDS011;7851;52.260;6.030;2023-03-01T02:21:56;4.2;;;3.8;;
15498;SDS011;7851;52.260;6.030;2023-03-01T02:22:55;3.8;;;3.5;;
15498;SDS011;7851;52.260;6.030;2023-03-01T02:23:55;6.4;;;4.1;;
15498;SDS011;7851;52.260;6.030;2023-03-01T02:25:00;5;;;3.9;;
15498;SDS011;7851;52.260;6.030;2023-03-01T02:25:56;4.1;;;3.7;;
15498;SDS011;7851;52.260;6.030;2023-03-01T02:26:55;4.4;;;4;;
15498;SDS011;7851;52.260;6.030;2023-03-01T02:27:57;5.8;;;4.1;;
15498;SDS011;7851;52.260;6.030;2023-03-01T02:28:55;8.6;;;4;;
15498;SDS011;7851;52.260;6.030;2023-03-01T02:29:55;4.9;;;3.9;;
15498;SDS011;7851;52.260;6.030;2023-03-01T02:30:55;4;;;3.6;;
15498;SDS011;7851;52.260;6.030;2023-03-01T02:31:56;4.3;;;3.9;;
15498;SDS011;7851;52.260;6.030;2023-03-01T02:32:55;4.9;;;4;;
15498;SDS011;7851;52.260;6.030;2023-03-01T02:33:55;4.4;;;4;;
15498;SDS011;7851;52.260;6.030;2023-03-01T02:34:55;4.3;;;3.5;;
15498;SDS011;7851;52.260;6.030;2023-03-01T02:35:55;5.7;;;3.7;;
15498;SDS011;7851;52.260;6.030;2023-03-01T02:36:56;5.6;;;3.7;;
15498;SDS011;7851;52.260;6.030;2023-03-01T02:37:55;5.7;;;3.8;;
15498;SDS011;7851;52.260;6.030;2023-03-01T02:38:55;5.2;;;3.9;;
15498;SDS011;7851;52.260;6.030;2023-03-01T02:39:56;3.7;;;3.4;;
15498;SDS011;7851;52.260;6.030;2023-03-01T02:40:55;4.7;;;3.8;;
15498;SDS011;7851;52.260;6.030;2023-03-01T02:41:56;4.7;;;4.3;;
15498;SDS011;7851;52.260;6.030;2023-03-01T02:42:56;4.1;;;3.7;;
15498;SDS011;7851;52.260;6.030;2023-03-01T02:43:55;4.9;;;4.2;;
15498;SDS011;7851;52.260;6.030;2023-03-01T02:44:55;4.4;;;3.6;;
15498;SDS011;7851;52.260;6.030;2023-03-01T02:45:57;4;;;3.7;;
15498;SDS011;7851;52.260;6.030;2023-03-01T02:46:56;3.9;;;3.5;;
15498;SDS011;7851;52.260;6.030;2023-03-01T02:47:55;4.3;;;3.9;;
15498;SDS011;7851;52.260;6.030;2023-03-01T02:48:56;4.7;;;3.8;;
15498;SDS011;7851;52.260;6.030;2023-03-01T02:49:55;4.8;;;3.6;;
15498;SDS011;7851;52.260;6.030;2023-03-01T02:51:01;9.3;;;4.1;;
15498;SDS011;7851;52.260;6.030;2023-03-01T02:52:01;3.7;;;3.4;;
15498;SDS011;7851;52.260;6.030;2023-03-01T02:52:56;4.2;;;3.8;;
15498;SDS011;7851;52.260;6.030;2023-03-01T02:53:58;5.5;;;3.9;;
15498;SDS011;7851;52.260;6.030;2023-03-01T02:54:57;4.4;;;3.9;;
15498;SDS011;7851;52.260;6.030;2023-03-01T02:55:55;4;;;3.6;;
15498;SDS011;7851;52.260;6.030;2023-03-01T02:56:55;4.9;;;4;;
15498;SDS011;7851;52.260;6.030;2023-03-01T02:57:55;6.4;;;4.1;;
15498;SDS011;7851;52.260;6.030;2023-03-01T02:58:55;4.6;;;3.2;;
15498;SDS011;7851;52.260;6.030;2023-03-01T02:59:55;3.9;;;3.6;;
15498;SDS011;7851;52.260;6.030;2023-03-01T03:00:55;4.5;;;4.1;;
15498;SDS011;7851;52.260;6.030;2023-03-01T03:01:55;3.9;;;3.5;;
15498;SDS011;7851;52.260;6.030;2023-03-01T03:02:55;5.6;;;4;;
15498;SDS011;7851;52.260;6.030;2023-03-01T03:03:55;4.2;;;3.7;;
15498;SDS011;7851;52.260;6.030;2023-03-01T03:04:55;4.6;;;4.1;;
15498;SDS011;7851;52.260;6.030;2023-03-01T03:05:55;3.8;;;3.5;;
15498;SDS011;7851;52.260;6.030;2023-03-01T03:06:55;8.7;;;3.7;;
15498;SDS011;7851;52.260;6.030;2023-03-01T03:07:55;4.4;;;3.7;;
15498;SDS011;7851;52.260;6.030;2023-03-01T03:08:55;4.2;;;3.8;;
15498;SDS011;7851;52.260;6.030;2023-03-01T03:09:55;8.1;;;3.8;;
15498;SDS011;7851;52.260;6.030;2023-03-01T03:10:55;5.9;;;3.9;;
15498;SDS011;7851;52.260;6.030;2023-03-01T03:11:55;4.3;;;3.9;;
15498;SDS011;7851;52.260;6.030;2023-03-01T03:12:56;4.6;;;4.1;;
15498;SDS011;7851;52.260;6.030;2023-03-01T03:13:55;4.1;;;3.7;;
15498;SDS011;7851;52.260;6.030;2023-03-01T03:14:55;4;;;3.7;;
15498;SDS011;7851;52.260;6.030;2023-03-01T03:15:55;5.8;;;4;;
15498;SDS011;7851;52.260;6.030;2023-03-01T03:16:55;4.9;;;4.3;;
15498;SDS011;7851;52.260;6.030;2023-03-01T03:17:55;5.8;;;3.8;;
15498;SDS011;7851;52.260;6.030;2023-03-01T03:18:55;3.8;;;3.5;;
15498;SDS011;7851;52.260;6.030;2023-03-01T03:19:55;3.8;;;3.5;;
15498;SDS011;7851;52.260;6.030;2023-03-01T03:20:55;6.1;;;4.2;;
15498;SDS011;7851;52.260;6.030;2023-03-01T03:21:55;7.8;;;4.3;;
15498;SDS011;7851;52.260;6.030;2023-03-01T03:22:56;4.7;;;4;;
15498;SDS011;7851;52.260;6.030;2023-03-01T03:23:55;4.4;;;4;;
15498;SDS011;7851;52.260;6.030;2023-03-01T03:24:55;4.1;;;3.7;;
15498;SDS011;7851;52.260;6.030;2023-03-01T03:25:55;4.2;;;3.8;;
15498;SDS011;7851;52.260;6.030;2023-03-01T03:26:55;4;;;3.6;;
15498;SDS011;7851;52.260;6.030;2023-03-01T03:27:56;4.3;;;3.7;;
15498;SDS011;7851;52.260;6.030;2023-03-01T03:28:55;3.9;;;3.5;;
15498;SDS011;7851;52.260;6.030;2023-03-01T03:29:55;8.2;;;4;;
15498;SDS011;7851;52.260;6.030;2023-03-01T03:30:55;11.9;;;3.9;;
15498;SDS011;7851;52.260;6.030;2023-03-01T03:31:55;5.9;;;4.2;;
15498;SDS011;7851;52.260;6.030;2023-03-01T03:32:56;4.1;;;3.7;;
15498;SDS011;7851;52.260;6.030;2023-03-01T03:33:55;3.6;;;3.2;;
15498;SDS011;7851;52.260;6.030;2023-03-01T03:34:55;3.7;;;3.4;;
15498;SDS011;7851;52.260;6.030;2023-03-01T03:35:55;3.9;;;3.6;;
15498;SDS011;7851;52.260;6.030;2023-03-01T03:36:55;4;;;3.5;;
15498;SDS011;7851;52.260;6.030;2023-03-01T03:37:55;3.9;;;3.5;;
15498;SDS011;7851;52.260;6.030;2023-03-01T03:38:55;3.8;;;3.5;;
15498;SDS011;7851;52.260;6.030;2023-03-01T03:39:55;4.1;;;3.1;;
15498;SDS011;7851;52.260;6.030;2023-03-01T03:40:59;4.5;;;3.9;;
15498;SDS011;7851;52.260;6.030;2023-03-01T03:41:55;5.5;;;3.5;;
15498;SDS011;7851;52.260;6.030;2023-03-01T03:42:55;4;;;3.6;;
15498;SDS011;7851;52.260;6.030;2023-03-01T03:43:55;3.9;;;3.5;;
15498;SDS011;7851;52.260;6.030;2023-03-01T03:44:55;4.7;;;3.8;;
15498;SDS011;7851;52.260;6.030;2023-03-01T03:45:55;4.8;;;3.7;;
15498;SDS011;7851;52.260;6.030;2023-03-01T03:46:55;3.7;;;3.4;;
15498;SDS011;7851;52.260;6.030;2023-03-01T03:47:55;4.4;;;3.6;;
15498;SDS011;7851;52.260;6.030;2023-03-01T03:48:55;4.4;;;3.7;;
15498;SDS011;7851;52.260;6.030;2023-03-01T03:49:55;4.2;;;3.8;;
15498;SDS011;7851;52.260;6.030;2023-03-01T03:50:55;4.7;;;4;;
15498;SDS011;7851;52.260;6.030;2023-03-01T03:51:55;3.7;;;3.4;;
15498;SDS011;7851;52.260;6.030;2023-03-01T03:52:55;4;;;3.6;;
15498;SDS011;7851;52.260;6.030;2023-03-01T03:53:55;4;;;3.7;;
15498;SDS011;7851;52.260;6.030;2023-03-01T03:54:55;6;;;3.5;;
15498;SDS011;7851;52.260;6.030;2023-03-01T03:55:55;3.5;;;3.2;;
15498;SDS011;7851;52.260;6.030;2023-03-01T03:56:55;4.7;;;3.7;;
15498;SDS011;7851;52.260;6.030;2023-03-01T03:57:56;10.1;;;3.9;;
15498;SDS011;7851;52.260;6.030;2023-03-01T03:58:55;5.7;;;3.6;;
15498;SDS011;7851;52.260;6.030;2023-03-01T03:59:55;12.6;;;3.9;;
15498;SDS011;7851;52.260;6.030;2023-03-01T04:00:56;3.8;;;3.4;;
15498;SDS011;7851;52.260;6.030;2023-03-01T04:01:55;3.6;;;3.3;;
15498;SDS011;7851;52.260;6.030;2023-03-01T04:02:55;3.7;;;3.4;;
15498;SDS011;7851;52.260;6.030;2023-03-01T04:03:55;4;;;3.6;;
15498;SDS011;7851;52.260;6.030;2023-03-01T04:04:55;5.3;;;3.6;;
15498;SDS011;7851;52.260;6.030;2023-03-01T04:05:56;4.6;;;3.9;;
15498;SDS011;7851;52.260;6.030;2023-03-01T04:06:55;3.3;;;3;;
15498;SDS011;7851;52.260;6.030;2023-03-01T04:07:55;3.6;;;3.3;;
15498;SDS011;7851;52.260;6.030;2023-03-01T04:08:55;4.1;;;3.3;;
15498;SDS011;7851;52.260;6.030;2023-03-01T04:09:55;4.3;;;3.5;;
15498;SDS011;7851;52.260;6.030;2023-03-01T04:10:57;4.4;;;4;;
15498;SDS011;7851;52.260;6.030;2023-03-01T04:11:55;4.4;;;4;;
15498;SDS011;7851;52.260;6.030;2023-03-01T04:12:55;3.6;;;3.3;;
15498;SDS011;7851;52.260;6.030;2023-03-01T04:13:56;3.9;;;3.3;;
15498;SDS011;7851;52.260;6.030;2023-03-01T04:14:55;4.3;;;3.6;;
15498;SDS011;7851;52.260;6.030;2023-03-01T04:15:55;5.2;;;3.8;;
15498;SDS011;7851;52.260;6.030;2023-03-01T04:16:55;4;;;3.7;;
15498;SDS011;7851;52.260;6.030;2023-03-01T04:17:55;4;;;3.6;;
15498;SDS011;7851;52.260;6.030;2023-03-01T04:18:55;3.2;;;3;;
15498;SDS011;7851;52.260;6.030;2023-03-01T04:20:23;3.4;;;3.2;;
15498;SDS011;7851;52.260;6.030;2023-03-01T04:20:55;3.6;;;3.3;;
15498;SDS011;7851;52.260;6.030;2023-03-01T04:21:55;3.5;;;3.3;;
15498;SDS011;7851;52.260;6.030;2023-03-01T04:22:57;3.7;;;3.3;;
15498;SDS011;7851;52.260;6.030;2023-03-01T04:23:55;3.8;;;3.5;;
15498;SDS011;7851;52.260;6.030;2023-03-01T04:24:55;5;;;4.5;;
15498;SDS011;7851;52.260;6.030;2023-03-01T04:25:55;3.8;;;3.5;;
15498;SDS011;7851;52.260;6.030;2023-03-01T04:26:55;3.9;;;3.6;;
15498;SDS011;7851;52.260;6.030;2023-03-01T04:27:55;5.1;;;3.6;;
15498;SDS011;7851;52.260;6.030;2023-03-01T04:28:55;4.1;;;3.7;;
15498;SDS011;7851;52.260;6.030;2023-03-01T04:29:55;4.1;;;3.7;;
15498;SDS011;7851;52.260;6.030;2023-03-01T04:30:56;4.8;;;3.9;;
15498;SDS011;7851;52.260;6.030;2023-03-01T04:31:55;4.2;;;3.8;;
15498;SDS011;7851;52.260;6.030;2023-03-01T04:32:55;4;;;3.6;;
15498;SDS011;7851;52.260;6.030;2023-03-01T04:33:55;4.5;;;3.3;;
15498;SDS011;7851;52.260;6.030;2023-03-01T04:34:55;3.6;;;3.3;;
15498;SDS011;7851;52.260;6.030;2023-03-01T04:35:55;3.2;;;3;;
15498;SDS011;7851;52.260;6.030;2023-03-01T04:36:55;4;;;3.6;;
15498;SDS011;7851;52.260;6.030;2023-03-01T04:37:55;3.7;;;3.4;;
15498;SDS011;7851;52.260;6.030;2023-03-01T04:38:55;3;;;2.8;;
15498;SDS011;7851;52.260;6.030;2023-03-01T04:39:55;3.9;;;3.6;;
15498;SDS011;7851;52.260;6.030;2023-03-01T04:40:55;4;;;3.6;;
15498;SDS011;7851;52.260;6.030;2023-03-01T04:41:55;3.8;;;3.5;;
15498;SDS011;7851;52.260;6.030;2023-03-01T04:42:55;3.5;;;3;;
15498;SDS011;7851;52.260;6.030;2023-03-01T04:43:55;6.7;;;3.6;;
15498;SDS011;7851;52.260;6.030;2023-03-01T04:44:55;5.5;;;3.7;;
15498;SDS011;7851;52.260;6.030;2023-03-01T04:45:59;3.9;;;3.5;;
15498;SDS011;7851;52.260;6.030;2023-03-01T04:46:55;3.8;;;3.5;;
15498;SDS011;7851;52.260;6.030;2023-03-01T04:47:55;6.3;;;3.4;;
15498;SDS011;7851;52.260;6.030;2023-03-01T04:48:55;4;;;3.6;;
15498;SDS011;7851;52.260;6.030;2023-03-01T04:49:55;4.5;;;4.1;;
15498;SDS011;7851;52.260;6.030;2023-03-01T04:50:55;5.6;;;3.4;;
15498;SDS011;7851;52.260;6.030;2023-03-01T04:51:55;4.6;;;4.2;;
15498;SDS011;7851;52.260;6.030;2023-03-01T04:52:55;4.3;;;3.8;;
15498;SDS011;7851;52.260;6.030;2023-03-01T04:53:55;3.6;;;3.3;;
15498;SDS011;7851;52.260;6.030;2023-03-01T04:54:55;5.5;;;3.7;;
15498;SDS011;7851;52.260;6.030;2023-03-01T04:55:55;3.7;;;3.4;;
15498;SDS011;7851;52.260;6.030;2023-03-01T04:56:55;3.9;;;3.5;;
15498;SDS011;7851;52.260;6.030;2023-03-01T04:57:55;4;;;3.6;;
15498;SDS011;7851;52.260;6.030;2023-03-01T04:58:55;6.9;;;3.8;;
15498;SDS011;7851;52.260;6.030;2023-03-01T04:59:55;3.7;;;3.4;;
15498;SDS011;7851;52.260;6.030;2023-03-01T05:00:55;4.3;;;4;;
15498;SDS011;7851;52.260;6.030;2023-03-01T05:01:55;4.3;;;3.9;;
15498;SDS011;7851;52.260;6.030;2023-03-01T05:02:56;4.3;;;4;;
15498;SDS011;7851;52.260;6.030;2023-03-01T05:03:55;5;;;3.9;;
15498;SDS011;7851;52.260;6.030;2023-03-01T05:04:55;4;;;3.6;;
15498;SDS011;7851;52.260;6.030;2023-03-01T05:05:58;4.3;;;3.9;;
15498;SDS011;7851;52.260;6.030;2023-03-01T05:06:55;4.9;;;3.8;;
15498;SDS011;7851;52.260;6.030;2023-03-01T05:07:56;4.4;;;3.7;;
15498;SDS011;7851;52.260;6.030;2023-03-01T05:08:55;4;;;3.7;;
15498;SDS011;7851;52.260;6.030;2023-03-01T05:09:55;5;;;4.1;;
15498;SDS011;7851;52.260;6.030;2023-03-01T05:10:55;4.3;;;3.9;;
15498;SDS011;7851;52.260;6.030;2023-03-01T05:11:55;5.8;;;3.8;;
15498;SDS011;7851;52.260;6.030;2023-03-01T05:12:55;4.6;;;4.2;;
15498;SDS011;7851;52.260;6.030;2023-03-01T05:13:55;3.8;;;3.5;;
15498;SDS011;7851;52.260;6.030;2023-03-01T05:14:55;3.9;;;3.6;;
15498;SDS011;7851;52.260;6.030;2023-03-01T05:15:56;4.6;;;4.2;;
15498;SDS011;7851;52.260;6.030;2023-03-01T05:16:55;4.3;;;3.9;;
15498;SDS011;7851;52.260;6.030;2023-03-01T05:17:56;5.4;;;4.5;;
15498;SDS011;7851;52.260;6.030;2023-03-01T05:19:26;4.5;;;4.1;;
15498;SDS011;7851;52.260;6.030;2023-03-01T05:19:55;4.8;;;4.3;;
15498;SDS011;7851;52.260;6.030;2023-03-01T05:21:20;4.7;;;4.2;;
15498;SDS011;7851;52.260;6.030;2023-03-01T05:21:55;4.5;;;4.1;;
15498;SDS011;7851;52.260;6.030;2023-03-01T05:22:56;5;;;4.4;;
15498;SDS011;7851;52.260;6.030;2023-03-01T05:23:55;4.2;;;3.8;;
15498;SDS011;7851;52.260;6.030;2023-03-01T05:24:55;5.9;;;4.1;;
15498;SDS011;7851;52.260;6.030;2023-03-01T05:25:57;4.9;;;4.3;;
15498;SDS011;7851;52.260;6.030;2023-03-01T05:26:55;4.8;;;4;;
15498;SDS011;7851;52.260;6.030;2023-03-01T05:27:55;4.5;;;3.7;;
15498;SDS011;7851;52.260;6.030;2023-03-01T05:28:55;4.6;;;4.2;;
15498;SDS011;7851;52.260;6.030;2023-03-01T05:29:55;8.2;;;4.4;;
15498;SDS011;7851;52.260;6.030;2023-03-01T05:30:55;4.8;;;4.4;;
15498;SDS011;7851;52.260;6.030;2023-03-01T05:31:56;5.1;;;4.5;;
15498;SDS011;7851;52.260;6.030;2023-03-01T05:32:55;5.4;;;4.8;;
15498;SDS011;7851;52.260;6.030;2023-03-01T05:33:55;5.1;;;4.5;;
15498;SDS011;7851;52.260;6.030;2023-03-01T05:34:55;5;;;4.5;;
15498;SDS011;7851;52.260;6.030;2023-03-01T05:35:59;4.6;;;4.2;;
15498;SDS011;7851;52.260;6.030;2023-03-01T05:36:55;5.6;;;4.2;;
15498;SDS011;7851;52.260;6.030;2023-03-01T05:37:55;4.4;;;4;;
15498;SDS011;7851;52.260;6.030;2023-03-01T05:38:55;4.8;;;4.3;;
15498;SDS011;7851;52.260;6.030;2023-03-01T05:39:55;5.6;;;4.3;;
15498;SDS011;7851;52.260;6.030;2023-03-01T05:40:55;5.1;;;4.6;;
15498;SDS011;7851;52.260;6.030;2023-03-01T05:41:56;5.9;;;4.7;;
15498;SDS011;7851;52.260;6.030;2023-03-01T05:42:56;5.1;;;4.6;;
15498;SDS011;7851;52.260;6.030;2023-03-01T05:43:55;5.8;;;4.4;;
15498;SDS011;7851;52.260;6.030;2023-03-01T05:44:55;11.7;;;4.6;;
15498;SDS011;7851;52.260;6.030;2023-03-01T05:45:55;6.8;;;5;;
15498;SDS011;7851;52.260;6.030;2023-03-01T05:46:55;4.9;;;4.4;;
15498;SDS011;7851;52.260;6.030;2023-03-01T05:47:55;7;;;5.3;;
15498;SDS011;7851;52.260;6.030;2023-03-01T05:48:55;6.1;;;4.7;;
15498;SDS011;7851;52.260;6.030;2023-03-01T05:49:55;5;;;4.5;;
15498;SDS011;7851;52.260;6.030;2023-03-01T05:50:57;4.9;;;4.4;;
15498;SDS011;7851;52.260;6.030;2023-03-01T05:51:55;10.8;;;4.5;;
15498;SDS011;7851;52.260;6.030;2023-03-01T05:52:57;5.5;;;4.7;;
15498;SDS011;7851;52.260;6.030;2023-03-01T05:53:55;5.3;;;4.8;;
15498;SDS011;7851;52.260;6.030;2023-03-01T05:54:55;5.2;;;4.6;;
15498;SDS011;7851;52.260;6.030;2023-03-01T05:55:55;5.4;;;4.9;;
15498;SDS011;7851;52.260;6.030;2023-03-01T05:56:55;6.3;;;5.3;;
15498;SDS011;7851;52.260;6.030;2023-03-01T05:57:56;4.9;;;4.5;;
15498;SDS011;7851;52.260;6.030;2023-03-01T05:58:55;5;;;4.5;;
15498;SDS011;7851;52.260;6.030;2023-03-01T05:59:55;6.1;;;5.2;;
15498;SDS011;7851;52.260;6.030;2023-03-01T06:00:55;5.9;;;5.1;;
15498;SDS011;7851;52.260;6.030;2023-03-01T06:01:55;5.5;;;4.9;;
15498;SDS011;7851;52.260;6.030;2023-03-01T06:02:55;5.3;;;4.8;;
15498;SDS011;7851;52.260;6.030;2023-03-01T06:03:55;7;;;4.9;;
15498;SDS011;7851;52.260;6.030;2023-03-01T06:04:55;5.1;;;4.7;;
15498;SDS011;7851;52.260;6.030;2023-03-01T06:05:55;5.7;;;5;;
15498;SDS011;7851;52.260;6.030;2023-03-01T06:06:55;7.5;;;5.1;;
15498;SDS011;7851;52.260;6.030;2023-03-01T06:07:57;6;;;4.6;;
15498;SDS011;7851;52.260;6.030;2023-03-01T06:08:55;5.7;;;5.1;;
15498;SDS011;7851;52.260;6.030;2023-03-01T06:09:55;5.5;;;4.5;;
15498;SDS011;7851;52.260;6.030;2023-03-01T06:10:55;5.8;;;5;;
15498;SDS011;7851;52.260;6.030;2023-03-01T06:11:55;6.7;;;4.8;;
15498;SDS011;7851;52.260;6.030;2023-03-01T06:12:55;6.9;;;4.9;;
15498;SDS011;7851;52.260;6.030;2023-03-01T06:13:55;5.8;;;5.2;;
15498;SDS011;7851;52.260;6.030;2023-03-01T06:14:55;13.7;;;6.7;;
15498;SDS011;7851;52.260;6.030;2023-03-01T06:15:55;13.6;;;5.3;;
15498;SDS011;7851;52.260;6.030;2023-03-01T06:16:55;6.4;;;5.2;;
15498;SDS011;7851;52.260;6.030;2023-03-01T06:17:55;5.8;;;4.9;;
15498;SDS011;7851;52.260;6.030;2023-03-01T06:18:55;5.3;;;4.8;;
15498;SDS011;7851;52.260;6.030;2023-03-01T06:19:55;7;;;5.6;;
15498;SDS011;7851;52.260;6.030;2023-03-01T06:20:55;5;;;4.6;;
15498;SDS011;7851;52.260;6.030;2023-03-01T06:21:55;5.4;;;4.9;;
15498;SDS011;7851;52.260;6.030;2023-03-01T06:22:55;6.2;;;5.4;;